sensor_id;sensor_type;location;lat;lon;timestamp;pressure;altitude;pressure_sealevel;temperature;humidity
64827;BME280;51265;53.972;12.286;2022-08-25T00:01:30;101568.59;;;15.15;100.00
64827;BME280;51265;53.972;12.286;2022-08-25T00:03:57;101559.44;;;15.15;100.00
64827;BME280;51265;53.972;12.286;2022-08-25T00:06:23;101565.59;;;15.12;100.00
64827;BME280;51265;53.972;12.286;2022-08-25T00:08:49;101568.69;;;15.10;100.00
64827;BME280;51265;53.972;12.286;2022-08-25T00:11:21;101562.31;;;15.10;100.00
64827;BME280;51265;53.972;12.286;2022-08-25T00:13:54;101556.78;;;15.10;100.00
64827;BME280;51265;53.972;12.286;2022-08-25T00:16:21;101561.50;;;15.09;100.00
64827;BME280;51265;53.972;12.286;2022-08-25T00:18:51;101563.53;;;15.04;100.00
64827;BME280;51265;53.972;12.286;2022-08-25T00:21:17;101565.81;;;15.02;100.00
64827;BME280;51265;53.972;12.286;2022-08-25T00:23:44;101563.63;;;14.99;100.00
64827;BME280;51265;53.972;12.286;2022-08-25T00:26:12;101561.47;;;14.95;100.00
64827;BME280;51265;53.972;12.286;2022-08-25T00:28:38;101561.47;;;14.95;100.00
64827;BME280;51265;53.972;12.286;2022-08-25T00:31:05;101562.09;;;14.92;100.00
64827;BME280;51265;53.972;12.286;2022-08-25T00:33:32;101565.69;;;14.93;100.00
64827;BME280;51265;53.972;12.286;2022-08-25T00:35:59;101562.69;;;14.89;100.00
64827;BME280;51265;53.972;12.286;2022-08-25T00:38:26;101562.16;;;14.87;100.00
64827;BME280;51265;53.972;12.286;2022-08-25T00:40:51;101566.59;;;14.88;100.00
64827;BME280;51265;53.972;12.286;2022-08-25T00:46:09;101562.28;;;14.96;100.00
64827;BME280;51265;53.972;12.286;2022-08-25T00:48:37;101563.13;;;14.97;100.00
64827;BME280;51265;53.972;12.286;2022-08-25T00:51:06;101560.97;;;14.93;100.00
64827;BME280;51265;53.972;12.286;2022-08-25T00:53:34;101568.16;;;14.94;100.00
64827;BME280;51265;53.972;12.286;2022-08-25T00:56:00;101554.72;;;15.02;100.00
64827;BME280;51265;53.972;12.286;2022-08-25T00:58:28;101558.63;;;15.14;100.00
64827;BME280;51265;53.972;12.286;2022-08-25T01:00:56;101561.09;;;15.16;100.00
64827;BME280;51265;53.972;12.286;2022-08-25T01:03:24;101560.38;;;15.24;100.00
64827;BME280;51265;53.972;12.286;2022-08-25T01:05:51;101560.25;;;15.29;100.00
64827;BME280;51265;53.972;12.286;2022-08-25T01:08:18;101566.94;;;15.42;100.00
64827;BME280;51265;53.972;12.286;2022-08-25T01:10:45;101555.44;;;15.49;100.00
64827;BME280;51265;53.972;12.286;2022-08-25T01:13:38;101554.91;;;15.47;100.00
64827;BME280;51265;53.972;12.286;2022-08-25T01:16:05;101551.41;;;15.55;100.00
64827;BME280;51265;53.972;12.286;2022-08-25T01:18:45;101546.28;;;15.62;100.00
64827;BME280;51265;53.972;12.286;2022-08-25T01:21:12;101546.72;;;15.69;100.00
64827;BME280;51265;53.972;12.286;2022-08-25T01:23:39;101558.84;;;15.73;100.00
64827;BME280;51265;53.972;12.286;2022-08-25T01:26:13;101553.88;;;15.84;100.00
64827;BME280;51265;53.972;12.286;2022-08-25T01:28:43;101554.47;;;15.94;100.00
64827;BME280;51265;53.972;12.286;2022-08-25T01:31:30;101560.00;;;16.08;100.00
64827;BME280;51265;53.972;12.286;2022-08-25T01:33:57;101562.22;;;16.20;100.00
64827;BME280;51265;53.972;12.286;2022-08-25T01:36:25;101560.31;;;16.29;100.00
64827;BME280;51265;53.972;12.286;2022-08-25T01:38:52;101549.94;;;16.35;100.00
64827;BME280;51265;53.972;12.286;2022-08-25T01:41:44;101559.00;;;16.49;100.00
64827;BME280;51265;53.972;12.286;2022-08-25T01:44:16;101547.69;;;16.46;100.00
64827;BME280;51265;53.972;12.286;2022-08-25T01:46:42;101547.06;;;16.49;100.00
64827;BME280;51265;53.972;12.286;2022-08-25T01:49:07;101546.25;;;16.48;100.00
64827;BME280;51265;53.972;12.286;2022-08-25T01:51:46;101543.41;;;16.62;100.00
64827;BME280;51265;53.972;12.286;2022-08-25T01:54:13;101538.34;;;16.64;100.00
64827;BME280;51265;53.972;12.286;2022-08-25T01:56:39;101534.63;;;16.68;100.00
64827;BME280;51265;53.972;12.286;2022-08-25T01:59:04;101530.91;;;16.73;100.00
64827;BME280;51265;53.972;12.286;2022-08-25T02:01:30;101536.81;;;16.80;100.00
64827;BME280;51265;53.972;12.286;2022-08-25T02:03:56;101540.31;;;16.86;100.00
64827;BME280;51265;53.972;12.286;2022-08-25T02:06:31;101533.09;;;16.85;100.00
64827;BME280;51265;53.972;12.286;2022-08-25T02:09:03;101538.81;;;16.88;100.00
64827;BME280;51265;53.972;12.286;2022-08-25T02:11:31;101528.69;;;16.92;100.00
64827;BME280;51265;53.972;12.286;2022-08-25T02:13:57;101539.56;;;17.03;100.00
64827;BME280;51265;53.972;12.286;2022-08-25T02:16:29;101532.72;;;17.09;100.00
64827;BME280;51265;53.972;12.286;2022-08-25T02:18:57;101528.81;;;17.10;100.00
64827;BME280;51265;53.972;12.286;2022-08-25T02:21:24;101530.44;;;17.11;100.00
64827;BME280;51265;53.972;12.286;2022-08-25T02:23:50;101523.25;;;17.10;100.00
64827;BME280;51265;53.972;12.286;2022-08-25T02:26:16;101518.69;;;17.14;100.00
64827;BME280;51265;53.972;12.286;2022-08-25T02:28:48;101520.16;;;17.20;100.00
64827;BME280;51265;53.972;12.286;2022-08-25T02:31:16;101522.31;;;17.23;100.00
64827;BME280;51265;53.972;12.286;2022-08-25T02:33:42;101515.59;;;17.24;100.00
64827;BME280;51265;53.972;12.286;2022-08-25T02:36:08;101515.63;;;17.33;100.00
64827;BME280;51265;53.972;12.286;2022-08-25T02:38:34;101511.03;;;17.37;100.00
64827;BME280;51265;53.972;12.286;2022-08-25T02:41:01;101512.84;;;17.41;100.00
64827;BME280;51265;53.972;12.286;2022-08-25T02:43:32;101515.47;;;17.47;100.00
64827;BME280;51265;53.972;12.286;2022-08-25T02:45:58;101517.16;;;17.48;100.00
64827;BME280;51265;53.972;12.286;2022-08-25T02:48:24;101515.84;;;17.54;100.00
64827;BME280;51265;53.972;12.286;2022-08-25T02:50:51;101513.38;;;17.52;100.00
64827;BME280;51265;53.972;12.286;2022-08-25T02:53:18;101508.63;;;17.53;100.00
64827;BME280;51265;53.972;12.286;2022-08-25T02:55:45;101516.81;;;17.49;100.00
64827;BME280;51265;53.972;12.286;2022-08-25T02:58:13;101515.00;;;17.45;100.00
64827;BME280;51265;53.972;12.286;2022-08-25T03:00:38;101511.41;;;17.44;100.00
64827;BME280;51265;53.972;12.286;2022-08-25T03:03:04;101499.44;;;17.43;100.00
64827;BME280;51265;53.972;12.286;2022-08-25T03:05:31;101502.72;;;17.46;100.00
64827;BME280;51265;53.972;12.286;2022-08-25T03:07:58;101507.00;;;17.52;100.00
64827;BME280;51265;53.972;12.286;2022-08-25T03:10:24;101499.75;;;17.51;100.00
64827;BME280;51265;53.972;12.286;2022-08-25T03:12:50;101503.69;;;17.50;100.00
64827;BME280;51265;53.972;12.286;2022-08-25T03:15:16;101504.69;;;17.54;100.00
64827;BME280;51265;53.972;12.286;2022-08-25T03:17:44;101504.53;;;17.50;100.00
64827;BME280;51265;53.972;12.286;2022-08-25T03:20:11;101502.41;;;17.56;100.00
64827;BME280;51265;53.972;12.286;2022-08-25T03:22:37;101504.53;;;17.59;100.00
64827;BME280;51265;53.972;12.286;2022-08-25T03:25:04;101506.50;;;17.67;100.00
64827;BME280;51265;53.972;12.286;2022-08-25T03:27:48;101495.41;;;17.76;100.00
64827;BME280;51265;53.972;12.286;2022-08-25T03:30:15;101495.41;;;17.76;100.00
64827;BME280;51265;53.972;12.286;2022-08-25T03:32:42;101494.75;;;17.79;100.00
64827;BME280;51265;53.972;12.286;2022-08-25T03:35:09;101492.50;;;17.81;100.00
64827;BME280;51265;53.972;12.286;2022-08-25T03:37:35;101493.94;;;17.78;100.00
64827;BME280;51265;53.972;12.286;2022-08-25T03:40:03;101491.63;;;17.80;100.00
64827;BME280;51265;53.972;12.286;2022-08-25T03:42:29;101496.88;;;17.73;100.00
64827;BME280;51265;53.972;12.286;2022-08-25T03:44:55;101499.53;;;17.78;100.00
64827;BME280;51265;53.972;12.286;2022-08-25T03:47:21;101496.88;;;17.73;100.00
64827;BME280;51265;53.972;12.286;2022-08-25T03:49:50;101492.13;;;17.74;100.00
64827;BME280;51265;53.972;12.286;2022-08-25T03:52:16;101494.59;;;17.75;100.00
64827;BME280;51265;53.972;12.286;2022-08-25T03:54:43;101500.16;;;17.75;100.00
64827;BME280;51265;53.972;12.286;2022-08-25T03:57:09;101498.53;;;17.74;100.00
64827;BME280;51265;53.972;12.286;2022-08-25T03:59:35;101496.22;;;17.76;100.00
64827;BME280;51265;53.972;12.286;2022-08-25T04:02:04;101498.53;;;17.74;100.00
64827;BME280;51265;53.972;12.286;2022-08-25T04:04:30;101501.16;;;17.79;100.00
64827;BME280;51265;53.972;12.286;2022-08-25T04:06:56;101498.19;;;17.84;100.00
64827;BME280;51265;53.972;12.286;2022-08-25T04:09:23;101493.63;;;17.88;100.00
64827;BME280;51265;53.972;12.286;2022-08-25T04:11:49;101490.69;;;17.85;100.00
64827;BME280;51265;53.972;12.286;2022-08-25T04:14:15;101490.34;;;17.86;100.00
64827;BME280;51265;53.972;12.286;2022-08-25T04:16:42;101494.13;;;17.82;100.00
64827;BME280;51265;53.972;12.286;2022-08-25T04:19:09;101504.13;;;17.91;100.00
64827;BME280;51265;53.972;12.286;2022-08-25T04:21:39;101493.31;;;17.99;100.00
64827;BME280;51265;53.972;12.286;2022-08-25T04:24:07;101500.03;;;17.98;100.00
64827;BME280;51265;53.972;12.286;2022-08-25T04:26:36;101496.91;;;17.99;100.00
64827;BME280;51265;53.972;12.286;2022-08-25T04:29:04;101495.59;;;17.97;100.00
64827;BME280;51265;53.972;12.286;2022-08-25T04:31:30;101495.91;;;18.04;100.00
64827;BME280;51265;53.972;12.286;2022-08-25T04:33:57;101493.63;;;18.06;100.00
64827;BME280;51265;53.972;12.286;2022-08-25T04:36:23;101481.66;;;17.97;100.00
64827;BME280;51265;53.972;12.286;2022-08-25T04:38:49;101484.25;;;17.93;100.00
64827;BME280;51265;53.972;12.286;2022-08-25T04:41:18;101489.69;;;17.89;100.00
64827;BME280;51265;53.972;12.286;2022-08-25T04:43:45;101490.69;;;17.94;100.00
64827;BME280;51265;53.972;12.286;2022-08-25T04:46:16;101493.31;;;17.99;100.00
64827;BME280;51265;53.972;12.286;2022-08-25T04:48:43;101496.56;;;18.01;100.00
64827;BME280;51265;53.972;12.286;2022-08-25T04:51:12;101495.59;;;17.97;100.00
64827;BME280;51265;53.972;12.286;2022-08-25T04:53:39;101488.22;;;18.01;100.00
64827;BME280;51265;53.972;12.286;2022-08-25T04:56:07;101494.28;;;18.03;100.00
64827;BME280;51265;53.972;12.286;2022-08-25T04:58:33;101490.34;;;18.04;100.00
64827;BME280;51265;53.972;12.286;2022-08-25T05:01:01;101490.00;;;18.14;100.00
64827;BME280;51265;53.972;12.286;2022-08-25T05:03:27;101482.16;;;18.16;100.00
64827;BME280;51265;53.972;12.286;2022-08-25T05:05:53;101489.69;;;18.15;100.00
64827;BME280;51265;53.972;12.286;2022-08-25T05:08:18;101498.38;;;18.14;100.00
64827;BME280;51265;53.972;12.286;2022-08-25T05:10:44;101498.38;;;18.23;100.00
64827;BME280;51265;53.972;12.286;2022-08-25T05:13:10;101496.88;;;18.25;100.00
64827;BME280;51265;53.972;12.286;2022-08-25T05:15:36;101502.78;;;18.32;100.00
64827;BME280;51265;53.972;12.286;2022-08-25T05:18:18;101495.41;;;18.28;100.00
64827;BME280;51265;53.972;12.286;2022-08-25T05:20:44;101499.50;;;18.30;100.00
64827;BME280;51265;53.972;12.286;2022-08-25T05:23:10;101500.31;;;18.31;100.00
64827;BME280;51265;53.972;12.286;2022-08-25T05:25:36;101505.25;;;18.34;100.00
64827;BME280;51265;53.972;12.286;2022-08-25T05:28:02;101504.75;;;18.40;100.00
64827;BME280;51265;53.972;12.286;2022-08-25T05:30:29;101514.41;;;18.43;100.00
64827;BME280;51265;53.972;12.286;2022-08-25T05:32:55;101506.88;;;18.52;100.00
64827;BME280;51265;53.972;12.286;2022-08-25T05:35:21;101504.72;;;18.58;100.00
64827;BME280;51265;53.972;12.286;2022-08-25T05:37:47;101502.41;;;18.60;100.00
64827;BME280;51265;53.972;12.286;2022-08-25T05:40:13;101507.31;;;18.63;100.00
64827;BME280;51265;53.972;12.286;2022-08-25T05:42:40;101502.91;;;18.62;100.00
64827;BME280;51265;53.972;12.286;2022-08-25T05:45:06;101502.56;;;18.72;100.00
64827;BME280;51265;53.972;12.286;2022-08-25T05:47:34;101505.00;;;18.82;100.00
64827;BME280;51265;53.972;12.286;2022-08-25T05:50:00;101508.97;;;18.81;100.00
64827;BME280;51265;53.972;12.286;2022-08-25T05:52:26;101503.84;;;18.83;100.00
64827;BME280;51265;53.972;12.286;2022-08-25T05:54:53;101495.13;;;18.94;100.00
64827;BME280;51265;53.972;12.286;2022-08-25T05:57:19;101492.25;;;19.11;100.00
64827;BME280;51265;53.972;12.286;2022-08-25T05:59:45;101487.03;;;19.30;100.00
64827;BME280;51265;53.972;12.286;2022-08-25T06:02:10;101487.63;;;19.45;100.00
64827;BME280;51265;53.972;12.286;2022-08-25T06:04:55;101480.88;;;19.46;100.00
64827;BME280;51265;53.972;12.286;2022-08-25T06:07:23;101478.56;;;19.48;100.00
64827;BME280;51265;53.972;12.286;2022-08-25T06:09:49;101472.78;;;19.53;100.00
64827;BME280;51265;53.972;12.286;2022-08-25T06:12:15;101470.13;;;19.65;100.00
64827;BME280;51265;53.972;12.286;2022-08-25T06:14:42;101472.84;;;19.74;100.00
64827;BME280;51265;53.972;12.286;2022-08-25T06:17:08;101482.25;;;19.69;100.00
64827;BME280;51265;53.972;12.286;2022-08-25T06:19:34;101475.78;;;19.77;100.00
64827;BME280;51265;53.972;12.286;2022-08-25T06:21:59;101467.38;;;19.77;100.00
64827;BME280;51265;53.972;12.286;2022-08-25T06:24:26;101470.50;;;19.76;100.00
64827;BME280;51265;53.972;12.286;2022-08-25T06:26:53;101464.38;;;19.82;100.00
64827;BME280;51265;53.972;12.286;2022-08-25T06:29:19;101468.88;;;19.96;100.00
64827;BME280;51265;53.972;12.286;2022-08-25T06:31:45;101456.31;;;20.02;100.00
64827;BME280;51265;53.972;12.286;2022-08-25T06:34:12;101469.16;;;20.03;100.00
64827;BME280;51265;53.972;12.286;2022-08-25T06:36:38;101466.00;;;20.04;100.00
64827;BME280;51265;53.972;12.286;2022-08-25T06:39:04;101461.22;;;20.05;100.00
64827;BME280;51265;53.972;12.286;2022-08-25T06:41:30;101465.00;;;20.21;100.00
64827;BME280;51265;53.972;12.286;2022-08-25T06:43:57;101459.69;;;20.28;100.00
64827;BME280;51265;53.972;12.286;2022-08-25T06:46:25;101464.56;;;20.31;100.00
64827;BME280;51265;53.972;12.286;2022-08-25T06:48:52;101462.25;;;20.33;100.00
64827;BME280;51265;53.972;12.286;2022-08-25T06:51:20;101462.53;;;20.40;100.00
64827;BME280;51265;53.972;12.286;2022-08-25T06:53:48;101456.06;;;20.49;100.00
64827;BME280;51265;53.972;12.286;2022-08-25T06:56:15;101454.44;;;20.60;100.00
64827;BME280;51265;53.972;12.286;2022-08-25T06:58:41;101438.44;;;20.60;100.00
64827;BME280;51265;53.972;12.286;2022-08-25T07:01:16;101447.69;;;20.73;100.00
64827;BME280;51265;53.972;12.286;2022-08-25T07:03:43;101450.28;;;20.91;100.00
64827;BME280;51265;53.972;12.286;2022-08-25T07:06:08;101440.59;;;21.12;100.00
64827;BME280;51265;53.972;12.286;2022-08-25T07:08:34;101439.06;;;21.27;100.00
64827;BME280;51265;53.972;12.286;2022-08-25T07:11:08;101441.66;;;21.32;100.00
64827;BME280;51265;53.972;12.286;2022-08-25T07:13:35;101440.25;;;21.38;100.00
64827;BME280;51265;53.972;12.286;2022-08-25T07:16:03;101431.13;;;21.54;100.00
64827;BME280;51265;53.972;12.286;2022-08-25T07:18:29;101427.78;;;21.76;100.00
64827;BME280;51265;53.972;12.286;2022-08-25T07:20:55;101427.50;;;21.81;100.00
64827;BME280;51265;53.972;12.286;2022-08-25T07:23:23;101423.38;;;21.63;100.00
64827;BME280;51265;53.972;12.286;2022-08-25T07:25:49;101417.56;;;21.56;100.00
64827;BME280;51265;53.972;12.286;2022-08-25T07:28:16;101418.81;;;21.71;100.00
64827;BME280;51265;53.972;12.286;2022-08-25T07:30:42;101424.66;;;21.94;100.00
64827;BME280;51265;53.972;12.286;2022-08-25T07:33:09;101420.88;;;22.14;100.00
64827;BME280;51265;53.972;12.286;2022-08-25T07:35:35;101426.59;;;22.18;100.00
64827;BME280;51265;53.972;12.286;2022-08-25T07:38:03;101425.66;;;22.13;100.00
64827;BME280;51265;53.972;12.286;2022-08-25T07:40:36;101423.34;;;22.16;100.00
64827;BME280;51265;53.972;12.286;2022-08-25T07:43:05;101433.66;;;22.27;100.00
64827;BME280;51265;53.972;12.286;2022-08-25T07:45:35;101433.41;;;22.32;100.00
64827;BME280;51265;53.972;12.286;2022-08-25T07:48:05;101435.41;;;22.48;100.00
64827;BME280;51265;53.972;12.286;2022-08-25T07:50:32;101428.81;;;22.56;100.00
64827;BME280;51265;53.972;12.286;2022-08-25T07:52:58;101428.44;;;22.73;100.00
64827;BME280;51265;53.972;12.286;2022-08-25T07:55:26;101423.81;;;22.65;100.00
64827;BME280;51265;53.972;12.286;2022-08-25T07:57:54;101436.88;;;22.73;100.00
64827;BME280;51265;53.972;12.286;2022-08-25T08:00:20;101435.06;;;22.65;100.00
64827;BME280;51265;53.972;12.286;2022-08-25T08:02:46;101431.16;;;22.85;100.00
64827;BME280;51265;53.972;12.286;2022-08-25T08:05:13;101434.91;;;23.05;100.00
64827;BME280;51265;53.972;12.286;2022-08-25T08:07:39;101435.19;;;23.35;100.00
64827;BME280;51265;53.972;12.286;2022-08-25T08:10:07;101436.78;;;23.68;100.00
64827;BME280;51265;53.972;12.286;2022-08-25T08:12:34;101436.56;;;23.96;100.00
64827;BME280;51265;53.972;12.286;2022-08-25T08:15:00;101431.25;;;23.91;100.00
64827;BME280;51265;53.972;12.286;2022-08-25T08:17:26;101431.59;;;23.90;100.00
64827;BME280;51265;53.972;12.286;2022-08-25T08:19:52;101427.00;;;23.81;100.00
64827;BME280;51265;53.972;12.286;2022-08-25T08:22:19;101434.72;;;23.84;100.00
64827;BME280;51265;53.972;12.286;2022-08-25T08:24:45;101430.41;;;23.91;100.00
64827;BME280;51265;53.972;12.286;2022-08-25T08:27:12;101435.28;;;23.74;100.00
64827;BME280;51265;53.972;12.286;2022-08-25T08:29:39;101434.94;;;23.60;100.00
64827;BME280;51265;53.972;12.286;2022-08-25T08:32:07;101428.03;;;23.73;100.00
64827;BME280;51265;53.972;12.286;2022-08-25T08:34:34;101425.31;;;23.96;100.00
64827;BME280;51265;53.972;12.286;2022-08-25T08:37:01;101423.00;;;23.82;100.00
64827;BME280;51265;53.972;12.286;2022-08-25T08:39:29;101413.97;;;23.93;100.00
64827;BME280;51265;53.972;12.286;2022-08-25T08:50:23;101410.84;;;24.59;100.00
64827;BME280;51265;53.972;12.286;2022-08-25T08:52:57;101419.47;;;24.70;100.00
64827;BME280;51265;53.972;12.286;2022-08-25T08:55:44;101415.09;;;24.50;100.00
64827;BME280;51265;53.972;12.286;2022-08-25T08:58:22;101420.75;;;24.30;100.00
64827;BME280;51265;53.972;12.286;2022-08-25T09:00:53;101418.41;;;24.13;100.00
64827;BME280;51265;53.972;12.286;2022-08-25T09:06:19;101418.09;;;24.38;100.00
64827;BME280;51265;53.972;12.286;2022-08-25T09:08:47;101420.53;;;24.62;100.00
64827;BME280;51265;53.972;12.286;2022-08-25T09:16:54;101417.56;;;25.01;100.00
64827;BME280;51265;53.972;12.286;2022-08-25T09:19:38;101408.94;;;25.13;100.00
64827;BME280;51265;53.972;12.286;2022-08-25T09:28:18;101403.75;;;25.75;100.00
64827;BME280;51265;53.972;12.286;2022-08-25T09:31:04;101400.06;;;25.71;100.00
64827;BME280;51265;53.972;12.286;2022-08-25T09:33:34;101401.94;;;25.90;100.00
64827;BME280;51265;53.972;12.286;2022-08-25T09:36:00;101403.03;;;26.16;100.00
64827;BME280;51265;53.972;12.286;2022-08-25T09:38:27;101395.56;;;26.38;100.00
64827;BME280;51265;53.972;12.286;2022-08-25T09:40:58;101388.44;;;26.47;100.00
64827;BME280;51265;53.972;12.286;2022-08-25T09:43:34;101396.94;;;26.47;99.36
64827;BME280;51265;53.972;12.286;2022-08-25T09:46:16;101391.13;;;26.37;97.22
64827;BME280;51265;53.972;12.286;2022-08-25T09:48:50;101388.81;;;26.46;97.40
64827;BME280;51265;53.972;12.286;2022-08-25T09:51:36;101371.69;;;26.69;98.32
64827;BME280;51265;53.972;12.286;2022-08-25T09:54:16;101370.94;;;26.75;93.90
64827;BME280;51265;53.972;12.286;2022-08-25T09:56:58;101364.06;;;26.73;93.60
64827;BME280;51265;53.972;12.286;2022-08-25T09:59:29;101366.88;;;26.73;92.40
64827;BME280;51265;53.972;12.286;2022-08-25T10:02:02;101356.06;;;26.86;92.32
64827;BME280;51265;53.972;12.286;2022-08-25T10:04:30;101361.41;;;26.98;90.17
64827;BME280;51265;53.972;12.286;2022-08-25T10:06:57;101356.22;;;27.07;91.73
64827;BME280;51265;53.972;12.286;2022-08-25T10:09:33;101347.44;;;27.23;92.29
64827;BME280;51265;53.972;12.286;2022-08-25T10:12:00;101345.03;;;27.28;89.60
64827;BME280;51265;53.972;12.286;2022-08-25T10:14:34;101339.78;;;27.23;90.27
64827;BME280;51265;53.972;12.286;2022-08-25T10:17:23;101337.72;;;27.17;88.31
64827;BME280;51265;53.972;12.286;2022-08-25T10:22:39;101328.63;;;27.63;86.43
64827;BME280;51265;53.972;12.286;2022-08-25T10:25:08;101330.78;;;27.98;88.12
64827;BME280;51265;53.972;12.286;2022-08-25T10:28:06;101327.16;;;28.15;86.17
64827;BME280;51265;53.972;12.286;2022-08-25T10:33:40;101320.28;;;28.34;84.41
64827;BME280;51265;53.972;12.286;2022-08-25T10:36:18;101313.06;;;28.40;82.68
64827;BME280;51265;53.972;12.286;2022-08-25T10:38:56;101300.09;;;28.61;80.73
64827;BME280;51265;53.972;12.286;2022-08-25T10:41:38;101300.06;;;28.78;84.60
64827;BME280;51265;53.972;12.286;2022-08-25T10:44:17;101296.41;;;28.89;78.53
64827;BME280;51265;53.972;12.286;2022-08-25T10:49:47;101285.38;;;29.23;77.11
64827;BME280;51265;53.972;12.286;2022-08-25T10:52:24;101294.41;;;29.84;75.98
64827;BME280;51265;53.972;12.286;2022-08-25T10:58:06;101296.94;;;31.13;73.94
64827;BME280;51265;53.972;12.286;2022-08-25T11:00:48;101298.28;;;31.70;68.46
64827;BME280;51265;53.972;12.286;2022-08-25T11:03:51;101296.66;;;31.99;69.29
64827;BME280;51265;53.972;12.286;2022-08-25T11:06:36;101285.06;;;32.10;66.67
64827;BME280;51265;53.972;12.286;2022-08-25T11:09:21;101298.25;;;32.51;66.44
64827;BME280;51265;53.972;12.286;2022-08-25T11:11:55;101305.19;;;32.73;65.69
64827;BME280;51265;53.972;12.286;2022-08-25T11:14:46;101302.69;;;32.76;64.33
64827;BME280;51265;53.972;12.286;2022-08-25T11:19:52;101288.06;;;33.17;64.57
64827;BME280;51265;53.972;12.286;2022-08-25T11:22:39;101290.56;;;32.71;63.84
64827;BME280;51265;53.972;12.286;2022-08-25T11:25:21;101288.66;;;32.65;63.82
64827;BME280;51265;53.972;12.286;2022-08-25T11:28:02;101285.78;;;31.91;64.58
64827;BME280;51265;53.972;12.286;2022-08-25T11:30:30;101274.69;;;31.39;66.71
64827;BME280;51265;53.972;12.286;2022-08-25T11:32:57;101283.41;;;31.55;67.02
64827;BME280;51265;53.972;12.286;2022-08-25T11:46:04;101283.84;;;31.23;63.96
64827;BME280;51265;53.972;12.286;2022-08-25T11:48:39;101259.19;;;30.75;65.60
64827;BME280;51265;53.972;12.286;2022-08-25T11:51:26;101268.47;;;30.34;65.81
64827;BME280;51265;53.972;12.286;2022-08-25T11:54:15;101257.31;;;30.06;69.08
64827;BME280;51265;53.972;12.286;2022-08-25T11:56:51;101260.78;;;29.75;68.61
64827;BME280;51265;53.972;12.286;2022-08-25T12:02:35;101260.22;;;29.28;69.38
64827;BME280;51265;53.972;12.286;2022-08-25T12:05:11;101258.72;;;29.06;70.00
64827;BME280;51265;53.972;12.286;2022-08-25T12:08:46;101257.00;;;29.26;69.09
64827;BME280;51265;53.972;12.286;2022-08-25T12:11:05;101253.84;;;29.07;69.83
64827;BME280;51265;53.972;12.286;2022-08-25T12:13:44;101244.16;;;28.93;70.48
64827;BME280;51265;53.972;12.286;2022-08-25T12:21:53;101235.34;;;28.30;73.20
64827;BME280;51265;53.972;12.286;2022-08-25T12:27:32;101230.91;;;28.22;72.35
64827;BME280;51265;53.972;12.286;2022-08-25T12:33:31;101225.63;;;28.32;74.65
64827;BME280;51265;53.972;12.286;2022-08-25T12:38:27;101232.72;;;29.18;72.81
64827;BME280;51265;53.972;12.286;2022-08-25T12:41:06;101229.34;;;29.45;70.15
64827;BME280;51265;53.972;12.286;2022-08-25T12:43:35;101220.38;;;29.50;69.64
64827;BME280;51265;53.972;12.286;2022-08-25T12:49:00;101204.75;;;29.17;70.39
64827;BME280;51265;53.972;12.286;2022-08-25T12:51:53;101212.09;;;29.14;69.55
64827;BME280;51265;53.972;12.286;2022-08-25T12:57:27;101214.69;;;29.53;68.79
64827;BME280;51265;53.972;12.286;2022-08-25T12:59:58;101207.78;;;29.58;69.65
64827;BME280;51265;53.972;12.286;2022-08-25T13:05:34;101204.38;;;30.74;69.38
64827;BME280;51265;53.972;12.286;2022-08-25T13:11:39;101201.53;;;30.74;69.77
64827;BME280;51265;53.972;12.286;2022-08-25T13:16:36;101192.56;;;29.90;71.92
64827;BME280;51265;53.972;12.286;2022-08-25T13:19:04;101191.97;;;29.64;75.32
64827;BME280;51265;53.972;12.286;2022-08-25T13:21:34;101192.97;;;29.25;75.08
64827;BME280;51265;53.972;12.286;2022-08-25T13:24:03;101187.44;;;28.97;76.90
64827;BME280;51265;53.972;12.286;2022-08-25T13:26:32;101187.47;;;28.83;76.29
64827;BME280;51265;53.972;12.286;2022-08-25T13:31:35;101184.63;;;28.83;75.57
64827;BME280;51265;53.972;12.286;2022-08-25T13:34:17;101189.50;;;28.86;76.07
64827;BME280;51265;53.972;12.286;2022-08-25T13:36:46;101176.59;;;28.70;76.43
64827;BME280;51265;53.972;12.286;2022-08-25T13:39:33;101174.63;;;28.28;79.00
64827;BME280;51265;53.972;12.286;2022-08-25T13:42:00;101185.19;;;27.85;78.77
64827;BME280;51265;53.972;12.286;2022-08-25T13:44:29;101176.66;;;28.13;81.33
64827;BME280;51265;53.972;12.286;2022-08-25T13:49:37;101169.81;;;28.07;79.92
64827;BME280;51265;53.972;12.286;2022-08-25T13:52:04;101165.38;;;27.99;81.30
64827;BME280;51265;53.972;12.286;2022-08-25T13:54:38;101168.97;;;28.17;79.64
64827;BME280;51265;53.972;12.286;2022-08-25T13:57:24;101152.38;;;28.41;78.93
64827;BME280;51265;53.972;12.286;2022-08-25T13:59:55;101163.34;;;28.39;77.74
64827;BME280;51265;53.972;12.286;2022-08-25T14:02:44;101155.22;;;28.44;78.73
64827;BME280;51265;53.972;12.286;2022-08-25T14:05:11;101154.03;;;29.89;73.71
64827;BME280;51265;53.972;12.286;2022-08-25T14:07:38;101151.50;;;31.11;69.00
64827;BME280;51265;53.972;12.286;2022-08-25T14:10:06;101158.72;;;31.97;66.40
64827;BME280;51265;53.972;12.286;2022-08-25T14:12:34;101158.47;;;31.88;66.16
64827;BME280;51265;53.972;12.286;2022-08-25T14:15:07;101156.41;;;31.07;67.85
64827;BME280;51265;53.972;12.286;2022-08-25T14:17:36;101147.28;;;29.72;71.54